sensor_id;sensor_type;location;lat;lon;timestamp;P1;durP1;ratioP1;P2;durP2;ratioP2
33246;SDS011;19606;50.108;19.804;2022-12-29T00:01:31;6.15;;;3.58;;
33246;SDS011;19606;50.108;19.804;2022-12-29T00:03:57;7.15;;;3.28;;
33246;SDS011;19606;50.108;19.804;2022-12-29T00:06:23;6.90;;;3.25;;
33246;SDS011;19606;50.108;19.804;2022-12-29T00:08:49;10.35;;;3.97;;
33246;SDS011;19606;50.108;19.804;2022-12-29T00:11:16;8.85;;;3.78;;
33246;SDS011;19606;50.108;19.804;2022-12-29T00:13:44;10.85;;;3.60;;
33246;SDS011;19606;50.108;19.804;2022-12-29T00:16:29;6.30;;;3.20;;
33246;SDS011;19606;50.108;19.804;2022-12-29T00:18:55;7.60;;;3.72;;
33246;SDS011;19606;50.108;19.804;2022-12-29T00:21:24;6.22;;;3.78;;
33246;SDS011;19606;50.108;19.804;2022-12-29T00:24:11;5.28;;;3.38;;
33246;SDS011;19606;50.108;19.804;2022-12-29T00:26:40;10.68;;;3.42;;
33246;SDS011;19606;50.108;19.804;2022-12-29T00:29:24;9.20;;;4.63;;
33246;SDS011;19606;50.108;19.804;2022-12-29T00:32:09;11.38;;;4.53;;
33246;SDS011;19606;50.108;19.804;2022-12-29T00:34:54;9.77;;;4.55;;
33246;SDS011;19606;50.108;19.804;2022-12-29T00:37:36;8.18;;;3.58;;
33246;SDS011;19606;50.108;19.804;2022-12-29T00:40:22;7.88;;;3.47;;
33246;SDS011;19606;50.108;19.804;2022-12-29T00:43:06;20.13;;;8.98;;
33246;SDS011;19606;50.108;19.804;2022-12-29T00:45:50;17.95;;;7.47;;
33246;SDS011;19606;50.108;19.804;2022-12-29T00:48:19;10.63;;;4.72;;
33246;SDS011;19606;50.108;19.804;2022-12-29T00:51:04;10.60;;;4.97;;
33246;SDS011;19606;50.108;19.804;2022-12-29T00:53:30;6.90;;;3.75;;
33246;SDS011;19606;50.108;19.804;2022-12-29T00:55:59;6.38;;;3.25;;
33246;SDS011;19606;50.108;19.804;2022-12-29T00:58:26;9.25;;;3.45;;
33246;SDS011;19606;50.108;19.804;2022-12-29T01:01:00;5.22;;;3.33;;
33246;SDS011;19606;50.108;19.804;2022-12-29T01:03:29;5.95;;;3.03;;
33246;SDS011;19606;50.108;19.804;2022-12-29T01:06:09;6.18;;;3.38;;
33246;SDS011;19606;50.108;19.804;2022-12-29T01:08:35;6.97;;;3.57;;
33246;SDS011;19606;50.108;19.804;2022-12-29T01:11:11;8.27;;;3.67;;
33246;SDS011;19606;50.108;19.804;2022-12-29T01:13:37;21.88;;;9.40;;
33246;SDS011;19606;50.108;19.804;2022-12-29T01:16:06;30.00;;;15.05;;
33246;SDS011;19606;50.108;19.804;2022-12-29T01:18:32;54.35;;;26.45;;
33246;SDS011;19606;50.108;19.804;2022-12-29T01:20:58;47.67;;;23.77;;
33246;SDS011;19606;50.108;19.804;2022-12-29T01:23:28;49.97;;;23.05;;
33246;SDS011;19606;50.108;19.804;2022-12-29T01:25:54;33.92;;;17.60;;
33246;SDS011;19606;50.108;19.804;2022-12-29T01:28:20;28.67;;;13.27;;
33246;SDS011;19606;50.108;19.804;2022-12-29T01:30:46;9.02;;;5.13;;
33246;SDS011;19606;50.108;19.804;2022-12-29T01:33:12;18.02;;;5.72;;
33246;SDS011;19606;50.108;19.804;2022-12-29T01:35:37;13.85;;;4.95;;
33246;SDS011;19606;50.108;19.804;2022-12-29T01:38:03;13.25;;;5.43;;
33246;SDS011;19606;50.108;19.804;2022-12-29T01:40:29;12.43;;;5.15;;
33246;SDS011;19606;50.108;19.804;2022-12-29T01:42:54;11.05;;;5.90;;
33246;SDS011;19606;50.108;19.804;2022-12-29T01:45:20;203.52;;;78.68;;
33246;SDS011;19606;50.108;19.804;2022-12-29T01:47:53;256.05;;;95.25;;
33246;SDS011;19606;50.108;19.804;2022-12-29T01:50:25;191.82;;;79.75;;
33246;SDS011;19606;50.108;19.804;2022-12-29T01:53:01;171.25;;;71.80;;
33246;SDS011;19606;50.108;19.804;2022-12-29T01:55:40;164.27;;;66.90;;
33246;SDS011;19606;50.108;19.804;2022-12-29T01:58:19;175.57;;;69.93;;
33246;SDS011;19606;50.108;19.804;2022-12-29T02:00:46;147.45;;;62.10;;
33246;SDS011;19606;50.108;19.804;2022-12-29T02:03:12;69.65;;;32.50;;
33246;SDS011;19606;50.108;19.804;2022-12-29T02:05:45;88.05;;;35.25;;
33246;SDS011;19606;50.108;19.804;2022-12-29T02:08:20;94.70;;;38.13;;
33246;SDS011;19606;50.108;19.804;2022-12-29T02:10:48;60.53;;;25.50;;
33246;SDS011;19606;50.108;19.804;2022-12-29T02:13:17;64.38;;;29.45;;
33246;SDS011;19606;50.108;19.804;2022-12-29T02:21:38;35.25;;;16.67;;
33246;SDS011;19606;50.108;19.804;2022-12-29T02:35:31;33.95;;;13.27;;
33246;SDS011;19606;50.108;19.804;2022-12-29T02:41:06;25.67;;;10.73;;
33246;SDS011;19606;50.108;19.804;2022-12-29T02:43:38;21.30;;;9.10;;
33246;SDS011;19606;50.108;19.804;2022-12-29T02:46:26;18.58;;;8.35;;
33246;SDS011;19606;50.108;19.804;2022-12-29T02:52:02;24.83;;;9.27;;
33246;SDS011;19606;50.108;19.804;2022-12-29T02:54:39;18.70;;;7.35;;
33246;SDS011;19606;50.108;19.804;2022-12-29T02:57:30;37.03;;;14.73;;
33246;SDS011;19606;50.108;19.804;2022-12-29T03:00:02;58.85;;;26.00;;
33246;SDS011;19606;50.108;19.804;2022-12-29T03:15:44;30.25;;;12.45;;
33246;SDS011;19606;50.108;19.804;2022-12-29T03:18:32;46.13;;;21.38;;
33246;SDS011;19606;50.108;19.804;2022-12-29T03:23:37;59.53;;;26.45;;
33246;SDS011;19606;50.108;19.804;2022-12-29T03:26:06;58.78;;;27.70;;
33246;SDS011;19606;50.108;19.804;2022-12-29T03:28:36;60.75;;;27.50;;
33246;SDS011;19606;50.108;19.804;2022-12-29T03:31:32;51.03;;;24.98;;
33246;SDS011;19606;50.108;19.804;2022-12-29T03:33:58;49.08;;;21.85;;
33246;SDS011;19606;50.108;19.804;2022-12-29T03:36:29;54.97;;;24.63;;
33246;SDS011;19606;50.108;19.804;2022-12-29T03:39:23;48.20;;;22.98;;
33246;SDS011;19606;50.108;19.804;2022-12-29T03:41:50;50.88;;;23.83;;
33246;SDS011;19606;50.108;19.804;2022-12-29T03:44:21;54.53;;;23.67;;
33246;SDS011;19606;50.108;19.804;2022-12-29T03:47:04;47.63;;;22.90;;
33246;SDS011;19606;50.108;19.804;2022-12-29T03:49:31;51.67;;;23.23;;
33246;SDS011;19606;50.108;19.804;2022-12-29T03:51:57;51.17;;;24.20;;
33246;SDS011;19606;50.108;19.804;2022-12-29T03:54:23;50.25;;;22.00;;
33246;SDS011;19606;50.108;19.804;2022-12-29T03:56:49;53.42;;;22.27;;
33246;SDS011;19606;50.108;19.804;2022-12-29T03:59:15;50.03;;;22.10;;
33246;SDS011;19606;50.108;19.804;2022-12-29T04:01:41;44.60;;;20.85;;
33246;SDS011;19606;50.108;19.804;2022-12-29T04:04:07;42.42;;;20.10;;
33246;SDS011;19606;50.108;19.804;2022-12-29T04:06:32;43.22;;;19.48;;
33246;SDS011;19606;50.108;19.804;2022-12-29T04:08:58;44.08;;;20.38;;
33246;SDS011;19606;50.108;19.804;2022-12-29T04:11:24;48.67;;;21.90;;
33246;SDS011;19606;50.108;19.804;2022-12-29T04:13:49;47.20;;;21.20;;
33246;SDS011;19606;50.108;19.804;2022-12-29T04:16:15;41.20;;;18.17;;
33246;SDS011;19606;50.108;19.804;2022-12-29T04:18:41;37.67;;;17.33;;
33246;SDS011;19606;50.108;19.804;2022-12-29T04:21:06;37.50;;;17.48;;
33246;SDS011;19606;50.108;19.804;2022-12-29T04:23:33;39.63;;;17.58;;
33246;SDS011;19606;50.108;19.804;2022-12-29T04:26:01;36.85;;;16.67;;
33246;SDS011;19606;50.108;19.804;2022-12-29T04:28:27;38.90;;;15.80;;
33246;SDS011;19606;50.108;19.804;2022-12-29T04:30:53;40.08;;;17.08;;
33246;SDS011;19606;50.108;19.804;2022-12-29T04:33:19;38.17;;;16.20;;
33246;SDS011;19606;50.108;19.804;2022-12-29T04:35:46;37.05;;;18.67;;
33246;SDS011;19606;50.108;19.804;2022-12-29T04:38:11;41.70;;;18.42;;
33246;SDS011;19606;50.108;19.804;2022-12-29T04:40:38;38.95;;;17.67;;
33246;SDS011;19606;50.108;19.804;2022-12-29T04:43:04;45.05;;;18.35;;
33246;SDS011;19606;50.108;19.804;2022-12-29T04:45:30;23.00;;;10.93;;
33246;SDS011;19606;50.108;19.804;2022-12-29T04:47:56;20.55;;;7.03;;
33246;SDS011;19606;50.108;19.804;2022-12-29T04:50:22;18.85;;;7.90;;
33246;SDS011;19606;50.108;19.804;2022-12-29T04:52:47;20.42;;;8.73;;
33246;SDS011;19606;50.108;19.804;2022-12-29T04:55:13;18.48;;;7.85;;
33246;SDS011;19606;50.108;19.804;2022-12-29T04:57:39;18.17;;;8.20;;
33246;SDS011;19606;50.108;19.804;2022-12-29T05:00:04;31.73;;;15.98;;
33246;SDS011;19606;50.108;19.804;2022-12-29T05:02:31;100.82;;;47.25;;
33246;SDS011;19606;50.108;19.804;2022-12-29T05:04:57;123.97;;;58.03;;
33246;SDS011;19606;50.108;19.804;2022-12-29T05:07:23;122.68;;;54.40;;
33246;SDS011;19606;50.108;19.804;2022-12-29T05:09:50;123.05;;;57.67;;
33246;SDS011;19606;50.108;19.804;2022-12-29T05:12:15;133.65;;;58.13;;
33246;SDS011;19606;50.108;19.804;2022-12-29T05:14:41;133.05;;;55.15;;
33246;SDS011;19606;50.108;19.804;2022-12-29T05:17:07;106.20;;;48.20;;
33246;SDS011;19606;50.108;19.804;2022-12-29T05:19:32;104.68;;;48.90;;
33246;SDS011;19606;50.108;19.804;2022-12-29T05:21:58;103.43;;;46.80;;
33246;SDS011;19606;50.108;19.804;2022-12-29T05:24:24;100.32;;;44.67;;
33246;SDS011;19606;50.108;19.804;2022-12-29T05:26:49;85.30;;;36.28;;
33246;SDS011;19606;50.108;19.804;2022-12-29T05:29:15;64.70;;;31.92;;
33246;SDS011;19606;50.108;19.804;2022-12-29T05:31:42;70.38;;;31.52;;
33246;SDS011;19606;50.108;19.804;2022-12-29T05:34:09;73.13;;;33.28;;
33246;SDS011;19606;50.108;19.804;2022-12-29T05:36:37;62.58;;;29.95;;
33246;SDS011;19606;50.108;19.804;2022-12-29T05:39:03;67.35;;;29.98;;
33246;SDS011;19606;50.108;19.804;2022-12-29T05:41:29;63.05;;;28.25;;
33246;SDS011;19606;50.108;19.804;2022-12-29T05:43:55;48.40;;;21.83;;
33246;SDS011;19606;50.108;19.804;2022-12-29T05:46:20;38.20;;;17.40;;
33246;SDS011;19606;50.108;19.804;2022-12-29T05:48:46;43.17;;;19.08;;
33246;SDS011;19606;50.108;19.804;2022-12-29T05:51:15;33.17;;;15.38;;
33246;SDS011;19606;50.108;19.804;2022-12-29T05:53:40;35.70;;;15.60;;
33246;SDS011;19606;50.108;19.804;2022-12-29T05:56:06;41.50;;;16.83;;
33246;SDS011;19606;50.108;19.804;2022-12-29T05:58:32;44.58;;;17.52;;
33246;SDS011;19606;50.108;19.804;2022-12-29T06:00:57;37.53;;;17.83;;
33246;SDS011;19606;50.108;19.804;2022-12-29T06:03:23;36.28;;;16.17;;
33246;SDS011;19606;50.108;19.804;2022-12-29T06:05:49;37.60;;;16.48;;
33246;SDS011;19606;50.108;19.804;2022-12-29T06:08:15;34.95;;;14.32;;
33246;SDS011;19606;50.108;19.804;2022-12-29T06:10:40;33.63;;;13.88;;
33246;SDS011;19606;50.108;19.804;2022-12-29T06:13:06;37.03;;;15.13;;
33246;SDS011;19606;50.108;19.804;2022-12-29T06:15:32;29.90;;;15.02;;
33246;SDS011;19606;50.108;19.804;2022-12-29T06:17:58;35.30;;;15.05;;
33246;SDS011;19606;50.108;19.804;2022-12-29T06:20:24;32.75;;;14.05;;
33246;SDS011;19606;50.108;19.804;2022-12-29T06:22:50;31.73;;;16.17;;
33246;SDS011;19606;50.108;19.804;2022-12-29T06:25:15;30.15;;;13.60;;
33246;SDS011;19606;50.108;19.804;2022-12-29T06:27:41;25.27;;;13.25;;
33246;SDS011;19606;50.108;19.804;2022-12-29T06:30:07;23.50;;;11.60;;
33246;SDS011;19606;50.108;19.804;2022-12-29T06:32:34;22.30;;;9.07;;
33246;SDS011;19606;50.108;19.804;2022-12-29T06:35:00;23.00;;;9.55;;
33246;SDS011;19606;50.108;19.804;2022-12-29T06:37:27;22.02;;;9.18;;
33246;SDS011;19606;50.108;19.804;2022-12-29T06:39:52;25.67;;;9.45;;
33246;SDS011;19606;50.108;19.804;2022-12-29T06:42:18;21.50;;;7.88;;
33246;SDS011;19606;50.108;19.804;2022-12-29T06:44:44;16.17;;;7.78;;
33246;SDS011;19606;50.108;19.804;2022-12-29T06:47:09;19.48;;;9.43;;
33246;SDS011;19606;50.108;19.804;2022-12-29T06:49:35;19.15;;;8.82;;
33246;SDS011;19606;50.108;19.804;2022-12-29T06:52:01;17.20;;;8.68;;
33246;SDS011;19606;50.108;19.804;2022-12-29T06:54:29;18.30;;;8.45;;
33246;SDS011;19606;50.108;19.804;2022-12-29T06:56:56;20.85;;;10.02;;
33246;SDS011;19606;50.108;19.804;2022-12-29T06:59:22;23.75;;;10.25;;
33246;SDS011;19606;50.108;19.804;2022-12-29T07:01:47;32.17;;;14.13;;
33246;SDS011;19606;50.108;19.804;2022-12-29T07:04:14;49.55;;;24.17;;
33246;SDS011;19606;50.108;19.804;2022-12-29T07:06:39;143.25;;;60.15;;
33246;SDS011;19606;50.108;19.804;2022-12-29T07:09:08;163.05;;;70.70;;
33246;SDS011;19606;50.108;19.804;2022-12-29T07:11:34;161.32;;;67.88;;
33246;SDS011;19606;50.108;19.804;2022-12-29T07:14:00;138.35;;;63.28;;
33246;SDS011;19606;50.108;19.804;2022-12-29T07:16:25;136.32;;;59.88;;
33246;SDS011;19606;50.108;19.804;2022-12-29T07:18:51;133.95;;;60.03;;
33246;SDS011;19606;50.108;19.804;2022-12-29T07:21:17;120.55;;;55.25;;
33246;SDS011;19606;50.108;19.804;2022-12-29T07:23:43;113.13;;;52.67;;
33246;SDS011;19606;50.108;19.804;2022-12-29T07:26:10;126.60;;;52.63;;
33246;SDS011;19606;50.108;19.804;2022-12-29T07:28:38;123.20;;;54.63;;
33246;SDS011;19606;50.108;19.804;2022-12-29T07:31:04;100.32;;;46.17;;
33246;SDS011;19606;50.108;19.804;2022-12-29T07:33:31;117.13;;;49.92;;
33246;SDS011;19606;50.108;19.804;2022-12-29T07:35:58;109.18;;;49.70;;
33246;SDS011;19606;50.108;19.804;2022-12-29T07:38:23;96.97;;;42.70;;
33246;SDS011;19606;50.108;19.804;2022-12-29T07:40:49;92.50;;;40.97;;
33246;SDS011;19606;50.108;19.804;2022-12-29T07:43:15;98.60;;;44.95;;
33246;SDS011;19606;50.108;19.804;2022-12-29T07:45:40;74.70;;;31.45;;
33246;SDS011;19606;50.108;19.804;2022-12-29T07:48:06;77.63;;;37.08;;
33246;SDS011;19606;50.108;19.804;2022-12-29T07:50:33;77.68;;;36.85;;
33246;SDS011;19606;50.108;19.804;2022-12-29T07:52:59;80.93;;;34.88;;
33246;SDS011;19606;50.108;19.804;2022-12-29T07:55:25;72.03;;;35.40;;
33246;SDS011;19606;50.108;19.804;2022-12-29T07:57:54;71.68;;;33.55;;
33246;SDS011;19606;50.108;19.804;2022-12-29T08:00:20;59.35;;;27.90;;
33246;SDS011;19606;50.108;19.804;2022-12-29T08:02:46;52.72;;;24.55;;
33246;SDS011;19606;50.108;19.804;2022-12-29T08:05:12;53.45;;;22.75;;
33246;SDS011;19606;50.108;19.804;2022-12-29T08:07:38;48.80;;;21.88;;
33246;SDS011;19606;50.108;19.804;2022-12-29T08:10:04;40.72;;;18.63;;
33246;SDS011;19606;50.108;19.804;2022-12-29T08:12:30;40.50;;;17.55;;
33246;SDS011;19606;50.108;19.804;2022-12-29T08:14:55;40.20;;;17.83;;
33246;SDS011;19606;50.108;19.804;2022-12-29T08:17:22;45.72;;;17.30;;
33246;SDS011;19606;50.108;19.804;2022-12-29T08:19:47;46.03;;;21.05;;
33246;SDS011;19606;50.108;19.804;2022-12-29T08:22:13;167.00;;;77.65;;
33246;SDS011;19606;50.108;19.804;2022-12-29T08:24:39;134.85;;;64.28;;
33246;SDS011;19606;50.108;19.804;2022-12-29T08:27:05;140.13;;;62.55;;
33246;SDS011;19606;50.108;19.804;2022-12-29T08:29:30;122.82;;;56.05;;
33246;SDS011;19606;50.108;19.804;2022-12-29T08:31:56;110.13;;;50.92;;
33246;SDS011;19606;50.108;19.804;2022-12-29T08:34:22;86.78;;;43.63;;
33246;SDS011;19606;50.108;19.804;2022-12-29T08:36:47;82.50;;;42.15;;
33246;SDS011;19606;50.108;19.804;2022-12-29T08:39:13;82.93;;;41.28;;
33246;SDS011;19606;50.108;19.804;2022-12-29T08:41:39;76.40;;;36.55;;
33246;SDS011;19606;50.108;19.804;2022-12-29T08:44:04;79.10;;;37.03;;
33246;SDS011;19606;50.108;19.804;2022-12-29T08:46:30;64.80;;;32.25;;
33246;SDS011;19606;50.108;19.804;2022-12-29T08:48:55;62.42;;;31.25;;
33246;SDS011;19606;50.108;19.804;2022-12-29T08:51:21;55.42;;;27.17;;
33246;SDS011;19606;50.108;19.804;2022-12-29T08:53:47;51.13;;;25.38;;
33246;SDS011;19606;50.108;19.804;2022-12-29T08:56:13;37.55;;;18.63;;
33246;SDS011;19606;50.108;19.804;2022-12-29T08:58:39;45.58;;;19.67;;
33246;SDS011;19606;50.108;19.804;2022-12-29T09:01:05;36.90;;;19.50;;
33246;SDS011;19606;50.108;19.804;2022-12-29T09:03:31;38.78;;;19.80;;
33246;SDS011;19606;50.108;19.804;2022-12-29T09:05:57;41.58;;;23.25;;
33246;SDS011;19606;50.108;19.804;2022-12-29T09:08:23;106.68;;;57.45;;
33246;SDS011;19606;50.108;19.804;2022-12-29T09:10:48;112.78;;;64.65;;
33246;SDS011;19606;50.108;19.804;2022-12-29T09:13:14;109.38;;;60.63;;
33246;SDS011;19606;50.108;19.804;2022-12-29T09:15:42;105.40;;;54.60;;
33246;SDS011;19606;50.108;19.804;2022-12-29T09:18:08;75.53;;;42.45;;
33246;SDS011;19606;50.108;19.804;2022-12-29T09:20:34;84.50;;;44.40;;
33246;SDS011;19606;50.108;19.804;2022-12-29T09:23:00;74.25;;;40.53;;
33246;SDS011;19606;50.108;19.804;2022-12-29T09:25:26;65.28;;;34.75;;
33246;SDS011;19606;50.108;19.804;2022-12-29T09:27:52;49.90;;;28.15;;
33246;SDS011;19606;50.108;19.804;2022-12-29T09:30:19;44.92;;;24.77;;
33246;SDS011;19606;50.108;19.804;2022-12-29T09:32:46;48.97;;;28.98;;
33246;SDS011;19606;50.108;19.804;2022-12-29T09:35:13;57.38;;;31.90;;
33246;SDS011;19606;50.108;19.804;2022-12-29T09:37:40;61.95;;;33.90;;
33246;SDS011;19606;50.108;19.804;2022-12-29T09:40:06;73.68;;;38.35;;
33246;SDS011;19606;50.108;19.804;2022-12-29T09:42:41;106.22;;;59.53;;
33246;SDS011;19606;50.108;19.804;2022-12-29T09:45:25;118.78;;;58.53;;
33246;SDS011;19606;50.108;19.804;2022-12-29T09:48:03;109.97;;;57.50;;
33246;SDS011;19606;50.108;19.804;2022-12-29T09:50:31;108.68;;;55.60;;
33246;SDS011;19606;50.108;19.804;2022-12-29T09:55:41;84.35;;;44.53;;
33246;SDS011;19606;50.108;19.804;2022-12-29T09:58:21;83.47;;;39.28;;
33246;SDS011;19606;50.108;19.804;2022-12-29T10:03:32;49.53;;;28.52;;
33246;SDS011;19606;50.108;19.804;2022-12-29T10:17:24;20.45;;;12.77;;
33246;SDS011;19606;50.108;19.804;2022-12-29T10:25:12;11.98;;;7.57;;
33246;SDS011;19606;50.108;19.804;2022-12-29T10:27:50;15.75;;;9.68;;
33246;SDS011;19606;50.108;19.804;2022-12-29T10:30:18;12.43;;;8.05;;
33246;SDS011;19606;50.108;19.804;2022-12-29T10:32:45;16.67;;;9.60;;
33246;SDS011;19606;50.108;19.804;2022-12-29T10:40:50;21.17;;;12.65;;
33246;SDS011;19606;50.108;19.804;2022-12-29T10:43:32;21.00;;;12.80;;
33246;SDS011;19606;50.108;19.804;2022-12-29T10:46:08;24.20;;;13.43;;
33246;SDS011;19606;50.108;19.804;2022-12-29T10:48:37;16.75;;;10.32;;
33246;SDS011;19606;50.108;19.804;2022-12-29T10:51:06;17.95;;;8.20;;
33246;SDS011;19606;50.108;19.804;2022-12-29T10:53:44;16.83;;;7.83;;
33246;SDS011;19606;50.108;19.804;2022-12-29T10:56:48;16.10;;;7.82;;
33246;SDS011;19606;50.108;19.804;2022-12-29T10:59:28;12.70;;;7.75;;
33246;SDS011;19606;50.108;19.804;2022-12-29T11:02:04;15.07;;;8.70;;
33246;SDS011;19606;50.108;19.804;2022-12-29T11:07:48;15.05;;;7.63;;
33246;SDS011;19606;50.108;19.804;2022-12-29T11:10:29;19.23;;;9.00;;
33246;SDS011;19606;50.108;19.804;2022-12-29T11:12:59;16.88;;;9.35;;
33246;SDS011;19606;50.108;19.804;2022-12-29T11:15:28;14.60;;;8.13;;
33246;SDS011;19606;50.108;19.804;2022-12-29T11:18:04;16.10;;;8.90;;
33246;SDS011;19606;50.108;19.804;2022-12-29T11:20:37;18.42;;;10.00;;
33246;SDS011;19606;50.108;19.804;2022-12-29T11:23:05;17.20;;;9.00;;
33246;SDS011;19606;50.108;19.804;2022-12-29T11:25:51;18.80;;;9.82;;
33246;SDS011;19606;50.108;19.804;2022-12-29T11:28:40;20.80;;;10.48;;
33246;SDS011;19606;50.108;19.804;2022-12-29T11:31:08;18.85;;;9.23;;
33246;SDS011;19606;50.108;19.804;2022-12-29T11:33:35;18.13;;;9.63;;
33246;SDS011;19606;50.108;19.804;2022-12-29T11:38:41;19.60;;;10.68;;
33246;SDS011;19606;50.108;19.804;2022-12-29T11:41:12;17.08;;;9.88;;
33246;SDS011;19606;50.108;19.804;2022-12-29T11:43:43;20.02;;;11.35;;
33246;SDS011;19606;50.108;19.804;2022-12-29T11:46:14;18.45;;;10.32;;
33246;SDS011;19606;50.108;19.804;2022-12-29T11:48:43;20.00;;;10.38;;
33246;SDS011;19606;50.108;19.804;2022-12-29T11:51:11;19.25;;;9.80;;
33246;SDS011;19606;50.108;19.804;2022-12-29T11:56:15;19.17;;;10.02;;
33246;SDS011;19606;50.108;19.804;2022-12-29T11:58:43;17.45;;;9.73;;
33246;SDS011;19606;50.108;19.804;2022-12-29T12:03:40;16.88;;;8.85;;
33246;SDS011;19606;50.108;19.804;2022-12-29T12:06:12;15.48;;;8.60;;
33246;SDS011;19606;50.108;19.804;2022-12-29T12:08:48;15.30;;;8.93;;
33246;SDS011;19606;50.108;19.804;2022-12-29T12:16:34;7.40;;;4.47;;
33246;SDS011;19606;50.108;19.804;2022-12-29T12:19:34;11.23;;;4.45;;
33246;SDS011;19606;50.108;19.804;2022-12-29T12:22:16;5.65;;;2.85;;
33246;SDS011;19606;50.108;19.804;2022-12-29T12:24:50;6.90;;;4.47;;
33246;SDS011;19606;50.108;19.804;2022-12-29T12:30:20;12.07;;;4.25;;
33246;SDS011;19606;50.108;19.804;2022-12-29T12:32:56;10.73;;;4.65;;
33246;SDS011;19606;50.108;19.804;2022-12-29T12:38:17;6.93;;;3.97;;
33246;SDS011;19606;50.108;19.804;2022-12-29T12:40:59;8.15;;;5.10;;
33246;SDS011;19606;50.108;19.804;2022-12-29T12:43:34;7.63;;;4.50;;
33246;SDS011;19606;50.108;19.804;2022-12-29T12:51:37;7.90;;;5.30;;
33246;SDS011;19606;50.108;19.804;2022-12-29T13:02:45;7.55;;;3.38;;
33246;SDS011;19606;50.108;19.804;2022-12-29T13:16:29;10.88;;;4.88;;
33246;SDS011;19606;50.108;19.804;2022-12-29T13:26:43;8.90;;;4.18;;
33246;SDS011;19606;50.108;19.804;2022-12-29T13:29:29;8.55;;;4.97;;
33246;SDS011;19606;50.108;19.804;2022-12-29T13:32:19;14.50;;;5.03;;
33246;SDS011;19606;50.108;19.804;2022-12-29T13:37:47;10.02;;;5.95;;
33246;SDS011;19606;50.108;19.804;2022-12-29T13:40:36;10.20;;;5.53;;
33246;SDS011;19606;50.108;19.804;2022-12-29T13:43:06;9.77;;;5.80;;
33246;SDS011;19606;50.108;19.804;2022-12-29T13:45:33;11.05;;;5.57;;
33246;SDS011;19606;50.108;19.804;2022-12-29T13:48:05;8.95;;;5.88;;
33246;SDS011;19606;50.108;19.804;2022-12-29T13:50:53;10.23;;;5.85;;
33246;SDS011;19606;50.108;19.804;2022-12-29T13:56:14;10.02;;;6.00;;
33246;SDS011;19606;50.108;19.804;2022-12-29T14:01:30;13.57;;;6.93;;
33246;SDS011;19606;50.108;19.804;2022-12-29T14:04:29;13.70;;;6.50;;
33246;SDS011;19606;50.108;19.804;2022-12-29T14:15:02;11.32;;;6.57;;
33246;SDS011;19606;50.108;19.804;2022-12-29T14:17:34;10.40;;;5.47;;
33246;SDS011;19606;50.108;19.804;2022-12-29T14:20:00;13.45;;;5.57;;
33246;SDS011;19606;50.108;19.804;2022-12-29T14:22:27;12.32;;;6.40;;
33246;SDS011;19606;50.108;19.804;2022-12-29T14:24:53;13.45;;;6.63;;
33246;SDS011;19606;50.108;19.804;2022-12-29T14:29:45;10.00;;;6.55;;
33246;SDS011;19606;50.108;19.804;2022-12-29T14:34:53;14.13;;;7.32;;
33246;SDS011;19606;50.108;19.804;2022-12-29T14:42:44;16.33;;;7.95;;
33246;SDS011;19606;50.108;19.804;2022-12-29T14:47:38;9.65;;;5.78;;
33246;SDS011;19606;50.108;19.804;2022-12-29T14:50:07;12.65;;;6.18;;
33246;SDS011;19606;50.108;19.804;2022-12-29T14:52:54;12.32;;;7.20;;
33246;SDS011;19606;50.108;19.804;2022-12-29T14:58:11;10.98;;;6.43;;
33246;SDS011;19606;50.108;19.804;2022-12-29T15:00:54;13.95;;;6.57;;
33246;SDS011;19606;50.108;19.804;2022-12-29T15:03:43;13.15;;;7.43;;
33246;SDS011;19606;50.108;19.804;2022-12-29T15:06:11;14.23;;;7.28;;
33246;SDS011;19606;50.108;19.804;2022-12-29T15:14:26;12.75;;;6.65;;
33246;SDS011;19606;50.108;19.804;2022-12-29T15:17:01;15.23;;;7.25;;
33246;SDS011;19606;50.108;19.804;2022-12-29T15:19:33;16.05;;;7.30;;
33246;SDS011;19606;50.108;19.804;2022-12-29T15:21:59;14.57;;;7.20;;
33246;SDS011;19606;50.108;19.804;2022-12-29T15:24:25;16.85;;;8.85;;
33246;SDS011;19606;50.108;19.804;2022-12-29T15:26:52;18.10;;;8.90;;
33246;SDS011;19606;50.108;19.804;2022-12-29T15:32:22;14.77;;;7.80;;
33246;SDS011;19606;50.108;19.804;2022-12-29T15:34:56;21.13;;;9.75;;
33246;SDS011;19606;50.108;19.804;2022-12-29T15:37:32;20.98;;;9.95;;
33246;SDS011;19606;50.108;19.804;2022-12-29T15:40:00;19.60;;;9.90;;
33246;SDS011;19606;50.108;19.804;2022-12-29T15:42:32;18.95;;;9.43;;
33246;SDS011;19606;50.108;19.804;2022-12-29T15:45:08;18.05;;;9.63;;
33246;SDS011;19606;50.108;19.804;2022-12-29T15:47:36;23.67;;;9.73;;
33246;SDS011;19606;50.108;19.804;2022-12-29T15:52:30;27.80;;;12.45;;
33246;SDS011;19606;50.108;19.804;2022-12-29T15:55:00;24.95;;;10.07;;
33246;SDS011;19606;50.108;19.804;2022-12-29T15:57:31;16.52;;;9.82;;
33246;SDS011;19606;50.108;19.804;2022-12-29T16:00:27;23.60;;;10.48;;
33246;SDS011;19606;50.108;19.804;2022-12-29T16:02:54;22.33;;;10.50;;
33246;SDS011;19606;50.108;19.804;2022-12-29T16:05:21;21.42;;;11.35;;
33246;SDS011;19606;50.108;19.804;2022-12-29T16:07:55;24.02;;;12.77;;
33246;SDS011;19606;50.108;19.804;2022-12-29T16:10:38;25.17;;;12.35;;
33246;SDS011;19606;50.108;19.804;2022-12-29T16:15:47;25.77;;;13.23;;
33246;SDS011;19606;50.108;19.804;2022-12-29T16:18:20;23.65;;;12.80;;
33246;SDS011;19606;50.108;19.804;2022-12-29T16:20:57;30.92;;;13.52;;
33246;SDS011;19606;50.108;19.804;2022-12-29T16:23:27;28.63;;;12.90;;
33246;SDS011;19606;50.108;19.804;2022-12-29T16:25:55;25.15;;;13.48;;
33246;SDS011;19606;50.108;19.804;2022-12-29T16:28:35;32.17;;;15.75;;
33246;SDS011;19606;50.108;19.804;2022-12-29T16:31:13;31.02;;;15.00;;
33246;SDS011;19606;50.108;19.804;2022-12-29T16:33:48;51.37;;;22.50;;
33246;SDS011;19606;50.108;19.804;2022-12-29T16:39:04;56.92;;;24.88;;
33246;SDS011;19606;50.108;19.804;2022-12-29T16:41:49;50.28;;;22.10;;
33246;SDS011;19606;50.108;19.804;2022-12-29T16:44:22;40.22;;;17.80;;
33246;SDS011;19606;50.108;19.804;2022-12-29T16:47:15;26.88;;;12.27;;
33246;SDS011;19606;50.108;19.804;2022-12-29T16:49:46;25.42;;;13.38;;
33246;SDS011;19606;50.108;19.804;2022-12-29T16:55:48;26.10;;;10.27;;
33246;SDS011;19606;50.108;19.804;2022-12-29T16:58:20;22.65;;;11.95;;
33246;SDS011;19606;50.108;19.804;2022-12-29T17:00:47;28.17;;;13.45;;
33246;SDS011;19606;50.108;19.804;2022-12-29T17:03:13;23.55;;;12.25;;
33246;SDS011;19606;50.108;19.804;2022-12-29T17:05:40;26.83;;;12.50;;
33246;SDS011;19606;50.108;19.804;2022-12-29T17:08:19;26.63;;;12.80;;
33246;SDS011;19606;50.108;19.804;2022-12-29T17:10:50;26.63;;;13.25;;
33246;SDS011;19606;50.108;19.804;2022-12-29T17:13:36;38.22;;;14.00;;
33246;SDS011;19606;50.108;19.804;2022-12-29T17:16:03;38.20;;;16.10;;
33246;SDS011;19606;50.108;19.804;2022-12-29T17:18:31;39.50;;;17.02;;
33246;SDS011;19606;50.108;19.804;2022-12-29T17:20:57;64.25;;;24.90;;
33246;SDS011;19606;50.108;19.804;2022-12-29T17:23:23;46.38;;;21.13;;
33246;SDS011;19606;50.108;19.804;2022-12-29T17:25:48;42.65;;;18.92;;